sensor_id;sensor_type;location;lat;lon;timestamp;P1;durP1;ratioP1;P2;durP2;ratioP2
26082;SDS011;13848;49.018;12.078;2023-07-20T00:01:03;4.22;;;2.53;;
26082;SDS011;13848;49.018;12.078;2023-07-20T00:03:29;4.32;;;2.65;;
26082;SDS011;13848;49.018;12.078;2023-07-20T00:05:57;4.13;;;2.78;;
26082;SDS011;13848;49.018;12.078;2023-07-20T00:08:23;4.53;;;2.72;;
26082;SDS011;13848;49.018;12.078;2023-07-20T00:10:49;5.22;;;3.03;;
26082;SDS011;13848;49.018;12.078;2023-07-20T00:13:15;4.40;;;2.83;;
26082;SDS011;13848;49.018;12.078;2023-07-20T00:15:41;4.95;;;2.90;;
26082;SDS011;13848;49.018;12.078;2023-07-20T00:18:07;12.18;;;2.70;;
26082;SDS011;13848;49.018;12.078;2023-07-20T00:20:33;5.45;;;2.92;;
26082;SDS011;13848;49.018;12.078;2023-07-20T00:23:00;6.65;;;2.65;;
26082;SDS011;13848;49.018;12.078;2023-07-20T00:25:26;4.32;;;3.00;;
26082;SDS011;13848;49.018;12.078;2023-07-20T00:27:52;4.95;;;2.72;;
26082;SDS011;13848;49.018;12.078;2023-07-20T00:30:18;5.22;;;3.10;;
26082;SDS011;13848;49.018;12.078;2023-07-20T00:32:44;4.93;;;2.83;;
26082;SDS011;13848;49.018;12.078;2023-07-20T00:35:10;8.20;;;3.03;;
26082;SDS011;13848;49.018;12.078;2023-07-20T00:37:37;4.35;;;3.05;;
26082;SDS011;13848;49.018;12.078;2023-07-20T00:40:06;5.60;;;2.92;;
26082;SDS011;13848;49.018;12.078;2023-07-20T00:42:32;4.35;;;2.90;;
26082;SDS011;13848;49.018;12.078;2023-07-20T00:44:59;3.20;;;2.67;;
26082;SDS011;13848;49.018;12.078;2023-07-20T00:47:25;3.45;;;2.60;;
26082;SDS011;13848;49.018;12.078;2023-07-20T00:49:52;4.82;;;2.83;;
26082;SDS011;13848;49.018;12.078;2023-07-20T00:52:20;9.27;;;2.97;;
26082;SDS011;13848;49.018;12.078;2023-07-20T00:54:48;5.03;;;2.53;;
26082;SDS011;13848;49.018;12.078;2023-07-20T00:57:16;4.78;;;2.63;;
26082;SDS011;13848;49.018;12.078;2023-07-20T00:59:44;4.35;;;3.08;;
26082;SDS011;13848;49.018;12.078;2023-07-20T01:02:10;4.57;;;2.50;;
26082;SDS011;13848;49.018;12.078;2023-07-20T01:04:36;4.90;;;2.88;;
26082;SDS011;13848;49.018;12.078;2023-07-20T01:07:03;4.47;;;2.65;;
26082;SDS011;13848;49.018;12.078;2023-07-20T01:09:37;4.63;;;2.70;;
26082;SDS011;13848;49.018;12.078;2023-07-20T01:12:10;3.70;;;2.63;;
26082;SDS011;13848;49.018;12.078;2023-07-20T01:14:45;4.72;;;2.92;;
26082;SDS011;13848;49.018;12.078;2023-07-20T01:17:11;4.60;;;2.45;;
26082;SDS011;13848;49.018;12.078;2023-07-20T01:19:37;3.33;;;2.30;;
26082;SDS011;13848;49.018;12.078;2023-07-20T01:22:06;5.55;;;2.85;;
26082;SDS011;13848;49.018;12.078;2023-07-20T01:24:52;5.22;;;2.60;;
26082;SDS011;13848;49.018;12.078;2023-07-20T01:27:36;5.07;;;2.70;;
26082;SDS011;13848;49.018;12.078;2023-07-20T01:30:25;4.05;;;3.15;;
26082;SDS011;13848;49.018;12.078;2023-07-20T01:33:12;4.30;;;2.72;;
26082;SDS011;13848;49.018;12.078;2023-07-20T01:35:40;5.65;;;3.03;;
26082;SDS011;13848;49.018;12.078;2023-07-20T01:38:07;4.45;;;2.72;;
26082;SDS011;13848;49.018;12.078;2023-07-20T01:40:35;4.10;;;2.90;;
26082;SDS011;13848;49.018;12.078;2023-07-20T01:43:01;4.55;;;2.65;;
26082;SDS011;13848;49.018;12.078;2023-07-20T01:45:27;4.70;;;2.55;;
26082;SDS011;13848;49.018;12.078;2023-07-20T01:47:53;5.35;;;2.72;;
26082;SDS011;13848;49.018;12.078;2023-07-20T01:50:21;5.88;;;3.30;;
26082;SDS011;13848;49.018;12.078;2023-07-20T01:52:47;4.25;;;2.80;;
26082;SDS011;13848;49.018;12.078;2023-07-20T01:55:13;4.18;;;2.78;;
26082;SDS011;13848;49.018;12.078;2023-07-20T01:57:39;5.50;;;2.72;;
26082;SDS011;13848;49.018;12.078;2023-07-20T02:00:05;7.85;;;3.00;;
26082;SDS011;13848;49.018;12.078;2023-07-20T02:02:32;4.93;;;2.55;;
26082;SDS011;13848;49.018;12.078;2023-07-20T02:04:58;4.72;;;2.60;;
26082;SDS011;13848;49.018;12.078;2023-07-20T02:07:25;3.80;;;2.72;;
26082;SDS011;13848;49.018;12.078;2023-07-20T02:09:51;5.50;;;3.15;;
26082;SDS011;13848;49.018;12.078;2023-07-20T02:12:17;3.97;;;2.70;;
26082;SDS011;13848;49.018;12.078;2023-07-20T02:14:43;4.68;;;2.92;;
26082;SDS011;13848;49.018;12.078;2023-07-20T02:17:09;5.00;;;2.72;;
26082;SDS011;13848;49.018;12.078;2023-07-20T02:19:35;5.50;;;2.67;;
26082;SDS011;13848;49.018;12.078;2023-07-20T02:22:01;4.88;;;2.80;;
26082;SDS011;13848;49.018;12.078;2023-07-20T02:24:28;3.40;;;2.38;;
26082;SDS011;13848;49.018;12.078;2023-07-20T02:26:54;3.90;;;2.58;;
26082;SDS011;13848;49.018;12.078;2023-07-20T02:29:20;5.75;;;2.65;;
26082;SDS011;13848;49.018;12.078;2023-07-20T02:31:46;6.18;;;2.88;;
26082;SDS011;13848;49.018;12.078;2023-07-20T02:34:12;4.80;;;2.70;;
26082;SDS011;13848;49.018;12.078;2023-07-20T02:36:38;4.60;;;2.65;;
26082;SDS011;13848;49.018;12.078;2023-07-20T02:39:04;7.53;;;2.50;;
26082;SDS011;13848;49.018;12.078;2023-07-20T02:41:32;3.60;;;2.70;;
26082;SDS011;13848;49.018;12.078;2023-07-20T02:43:58;3.90;;;2.80;;
26082;SDS011;13848;49.018;12.078;2023-07-20T02:46:25;3.45;;;2.67;;
26082;SDS011;13848;49.018;12.078;2023-07-20T02:48:51;5.70;;;2.53;;
26082;SDS011;13848;49.018;12.078;2023-07-20T02:51:17;4.78;;;3.03;;
26082;SDS011;13848;49.018;12.078;2023-07-20T02:53:43;3.42;;;2.40;;
26082;SDS011;13848;49.018;12.078;2023-07-20T02:56:09;3.80;;;2.65;;
26082;SDS011;13848;49.018;12.078;2023-07-20T02:58:39;3.58;;;2.47;;
26082;SDS011;13848;49.018;12.078;2023-07-20T03:01:06;3.65;;;2.60;;
26082;SDS011;13848;49.018;12.078;2023-07-20T03:03:32;4.00;;;2.58;;
26082;SDS011;13848;49.018;12.078;2023-07-20T03:05:58;2.85;;;2.50;;
26082;SDS011;13848;49.018;12.078;2023-07-20T03:08:24;4.65;;;2.70;;
26082;SDS011;13848;49.018;12.078;2023-07-20T03:10:50;3.67;;;2.53;;
26082;SDS011;13848;49.018;12.078;2023-07-20T03:13:16;3.42;;;2.55;;
26082;SDS011;13848;49.018;12.078;2023-07-20T03:15:43;3.80;;;2.47;;
26082;SDS011;13848;49.018;12.078;2023-07-20T03:18:09;3.65;;;2.65;;
26082;SDS011;13848;49.018;12.078;2023-07-20T03:20:35;3.35;;;2.30;;
26082;SDS011;13848;49.018;12.078;2023-07-20T03:23:01;3.80;;;2.67;;
26082;SDS011;13848;49.018;12.078;2023-07-20T03:25:27;4.40;;;2.53;;
26082;SDS011;13848;49.018;12.078;2023-07-20T03:27:53;3.75;;;2.30;;
26082;SDS011;13848;49.018;12.078;2023-07-20T03:30:19;3.97;;;2.38;;
26082;SDS011;13848;49.018;12.078;2023-07-20T03:32:46;3.20;;;2.30;;
26082;SDS011;13848;49.018;12.078;2023-07-20T03:35:12;3.38;;;2.58;;
26082;SDS011;13848;49.018;12.078;2023-07-20T03:37:38;4.85;;;2.38;;
26082;SDS011;13848;49.018;12.078;2023-07-20T03:40:04;3.05;;;2.30;;
26082;SDS011;13848;49.018;12.078;2023-07-20T03:42:31;4.03;;;2.65;;
26082;SDS011;13848;49.018;12.078;2023-07-20T03:44:57;3.78;;;2.58;;
26082;SDS011;13848;49.018;12.078;2023-07-20T03:47:23;4.18;;;2.83;;
26082;SDS011;13848;49.018;12.078;2023-07-20T03:49:50;6.35;;;2.40;;
26082;SDS011;13848;49.018;12.078;2023-07-20T03:52:16;4.90;;;2.75;;
26082;SDS011;13848;49.018;12.078;2023-07-20T03:54:42;5.45;;;2.50;;
26082;SDS011;13848;49.018;12.078;2023-07-20T03:57:08;3.88;;;2.65;;
26082;SDS011;13848;49.018;12.078;2023-07-20T03:59:34;4.53;;;2.78;;
26082;SDS011;13848;49.018;12.078;2023-07-20T04:02:00;3.45;;;2.38;;
26082;SDS011;13848;49.018;12.078;2023-07-20T04:04:26;4.25;;;2.50;;
26082;SDS011;13848;49.018;12.078;2023-07-20T04:06:53;5.38;;;2.72;;
26082;SDS011;13848;49.018;12.078;2023-07-20T04:09:19;2.60;;;2.35;;
26082;SDS011;13848;49.018;12.078;2023-07-20T04:11:45;4.13;;;2.50;;
26082;SDS011;13848;49.018;12.078;2023-07-20T04:14:11;3.45;;;2.20;;
26082;SDS011;13848;49.018;12.078;2023-07-20T04:16:37;3.78;;;2.60;;
26082;SDS011;13848;49.018;12.078;2023-07-20T04:19:02;5.43;;;2.85;;
26082;SDS011;13848;49.018;12.078;2023-07-20T04:21:28;3.30;;;2.20;;
26082;SDS011;13848;49.018;12.078;2023-07-20T04:23:56;3.00;;;2.50;;
26082;SDS011;13848;49.018;12.078;2023-07-20T04:26:22;5.55;;;3.08;;
26082;SDS011;13848;49.018;12.078;2023-07-20T04:28:48;5.10;;;2.50;;
26082;SDS011;13848;49.018;12.078;2023-07-20T04:31:14;5.07;;;2.90;;
26082;SDS011;13848;49.018;12.078;2023-07-20T04:33:41;3.15;;;2.38;;
26082;SDS011;13848;49.018;12.078;2023-07-20T04:36:07;4.50;;;2.60;;
26082;SDS011;13848;49.018;12.078;2023-07-20T04:38:33;4.00;;;2.72;;
26082;SDS011;13848;49.018;12.078;2023-07-20T04:41:01;3.35;;;2.20;;
26082;SDS011;13848;49.018;12.078;2023-07-20T04:43:26;3.75;;;2.40;;
26082;SDS011;13848;49.018;12.078;2023-07-20T04:45:54;5.90;;;2.83;;
26082;SDS011;13848;49.018;12.078;2023-07-20T04:48:20;5.38;;;2.35;;
26082;SDS011;13848;49.018;12.078;2023-07-20T04:50:46;6.25;;;3.78;;
26082;SDS011;13848;49.018;12.078;2023-07-20T04:53:12;6.93;;;3.70;;
26082;SDS011;13848;49.018;12.078;2023-07-20T04:55:38;7.80;;;2.67;;
26082;SDS011;13848;49.018;12.078;2023-07-20T04:58:06;3.92;;;2.80;;
26082;SDS011;13848;49.018;12.078;2023-07-20T05:00:33;5.38;;;2.80;;
26082;SDS011;13848;49.018;12.078;2023-07-20T05:02:59;6.15;;;2.42;;
26082;SDS011;13848;49.018;12.078;2023-07-20T05:05:25;4.30;;;2.78;;
26082;SDS011;13848;49.018;12.078;2023-07-20T05:07:51;10.55;;;2.70;;
26082;SDS011;13848;49.018;12.078;2023-07-20T05:10:17;3.40;;;2.40;;
26082;SDS011;13848;49.018;12.078;2023-07-20T05:12:43;4.05;;;2.47;;
26082;SDS011;13848;49.018;12.078;2023-07-20T05:15:11;4.63;;;2.67;;
26082;SDS011;13848;49.018;12.078;2023-07-20T05:17:36;3.20;;;2.33;;
26082;SDS011;13848;49.018;12.078;2023-07-20T05:20:03;3.53;;;2.85;;
26082;SDS011;13848;49.018;12.078;2023-07-20T05:22:29;4.97;;;2.53;;
26082;SDS011;13848;49.018;12.078;2023-07-20T05:24:55;5.20;;;2.83;;
26082;SDS011;13848;49.018;12.078;2023-07-20T05:27:21;6.90;;;3.55;;
26082;SDS011;13848;49.018;12.078;2023-07-20T05:29:47;5.57;;;3.60;;
26082;SDS011;13848;49.018;12.078;2023-07-20T05:32:14;3.88;;;2.75;;
26082;SDS011;13848;49.018;12.078;2023-07-20T05:34:40;8.85;;;2.60;;
26082;SDS011;13848;49.018;12.078;2023-07-20T05:37:06;4.97;;;3.20;;
26082;SDS011;13848;49.018;12.078;2023-07-20T05:39:32;4.32;;;3.10;;
26082;SDS011;13848;49.018;12.078;2023-07-20T05:41:58;4.28;;;2.90;;
26082;SDS011;13848;49.018;12.078;2023-07-20T05:44:24;5.53;;;2.72;;
26082;SDS011;13848;49.018;12.078;2023-07-20T05:46:50;3.92;;;2.60;;
26082;SDS011;13848;49.018;12.078;2023-07-20T05:49:17;4.32;;;2.55;;
26082;SDS011;13848;49.018;12.078;2023-07-20T05:51:43;4.28;;;2.85;;
26082;SDS011;13848;49.018;12.078;2023-07-20T05:54:09;5.68;;;2.92;;
26082;SDS011;13848;49.018;12.078;2023-07-20T05:56:35;5.10;;;3.20;;
26082;SDS011;13848;49.018;12.078;2023-07-20T05:59:01;5.88;;;3.10;;
26082;SDS011;13848;49.018;12.078;2023-07-20T06:01:27;8.90;;;3.50;;
26082;SDS011;13848;49.018;12.078;2023-07-20T06:03:53;7.55;;;4.13;;
26082;SDS011;13848;49.018;12.078;2023-07-20T06:06:20;5.22;;;3.33;;
26082;SDS011;13848;49.018;12.078;2023-07-20T06:08:46;6.22;;;3.42;;
26082;SDS011;13848;49.018;12.078;2023-07-20T06:11:12;8.18;;;3.47;;
26082;SDS011;13848;49.018;12.078;2023-07-20T06:13:38;7.15;;;3.40;;
26082;SDS011;13848;49.018;12.078;2023-07-20T06:16:04;5.75;;;3.28;;
26082;SDS011;13848;49.018;12.078;2023-07-20T06:18:30;5.60;;;2.92;;
26082;SDS011;13848;49.018;12.078;2023-07-20T06:20:56;4.47;;;3.45;;
26082;SDS011;13848;49.018;12.078;2023-07-20T06:23:23;4.75;;;3.30;;
26082;SDS011;13848;49.018;12.078;2023-07-20T06:25:49;5.07;;;3.42;;
26082;SDS011;13848;49.018;12.078;2023-07-20T06:28:15;5.32;;;3.30;;
26082;SDS011;13848;49.018;12.078;2023-07-20T06:30:41;6.03;;;3.90;;
26082;SDS011;13848;49.018;12.078;2023-07-20T06:33:07;4.82;;;3.40;;
26082;SDS011;13848;49.018;12.078;2023-07-20T06:35:33;6.18;;;3.40;;
26082;SDS011;13848;49.018;12.078;2023-07-20T06:37:59;4.63;;;3.10;;
26082;SDS011;13848;49.018;12.078;2023-07-20T06:40:26;6.25;;;2.97;;
26082;SDS011;13848;49.018;12.078;2023-07-20T06:42:52;10.15;;;3.58;;
26082;SDS011;13848;49.018;12.078;2023-07-20T06:45:18;4.93;;;3.35;;
26082;SDS011;13848;49.018;12.078;2023-07-20T06:47:44;5.53;;;3.08;;
26082;SDS011;13848;49.018;12.078;2023-07-20T06:50:10;5.90;;;3.00;;
26082;SDS011;13848;49.018;12.078;2023-07-20T06:52:36;5.93;;;3.33;;
26082;SDS011;13848;49.018;12.078;2023-07-20T06:55:02;4.05;;;3.00;;
26082;SDS011;13848;49.018;12.078;2023-07-20T06:57:30;5.50;;;2.90;;
26082;SDS011;13848;49.018;12.078;2023-07-20T06:59:56;5.43;;;2.80;;
26082;SDS011;13848;49.018;12.078;2023-07-20T07:02:22;4.88;;;3.13;;
26082;SDS011;13848;49.018;12.078;2023-07-20T07:04:48;5.28;;;3.20;;
26082;SDS011;13848;49.018;12.078;2023-07-20T07:07:14;4.00;;;2.42;;
26082;SDS011;13848;49.018;12.078;2023-07-20T07:09:40;7.53;;;2.75;;
26082;SDS011;13848;49.018;12.078;2023-07-20T07:12:07;4.35;;;2.78;;
26082;SDS011;13848;49.018;12.078;2023-07-20T07:14:35;5.57;;;3.10;;
26082;SDS011;13848;49.018;12.078;2023-07-20T07:17:00;4.78;;;2.92;;
26082;SDS011;13848;49.018;12.078;2023-07-20T07:19:26;4.40;;;2.90;;
26082;SDS011;13848;49.018;12.078;2023-07-20T07:21:52;6.88;;;3.08;;
26082;SDS011;13848;49.018;12.078;2023-07-20T07:24:19;4.90;;;2.80;;
26082;SDS011;13848;49.018;12.078;2023-07-20T07:26:44;6.32;;;2.72;;
26082;SDS011;13848;49.018;12.078;2023-07-20T07:29:10;5.72;;;2.90;;
26082;SDS011;13848;49.018;12.078;2023-07-20T07:31:38;6.20;;;3.13;;
26082;SDS011;13848;49.018;12.078;2023-07-20T07:34:04;4.35;;;3.20;;
26082;SDS011;13848;49.018;12.078;2023-07-20T07:36:30;3.17;;;2.70;;
26082;SDS011;13848;49.018;12.078;2023-07-20T07:38:56;5.20;;;2.90;;
26082;SDS011;13848;49.018;12.078;2023-07-20T07:41:22;5.35;;;2.83;;
26082;SDS011;13848;49.018;12.078;2023-07-20T07:43:48;4.53;;;2.88;;
26082;SDS011;13848;49.018;12.078;2023-07-20T07:46:14;6.18;;;3.10;;
26082;SDS011;13848;49.018;12.078;2023-07-20T07:48:41;5.28;;;3.20;;
26082;SDS011;13848;49.018;12.078;2023-07-20T07:51:07;2.90;;;2.42;;
26082;SDS011;13848;49.018;12.078;2023-07-20T07:53:33;5.60;;;2.90;;
26082;SDS011;13848;49.018;12.078;2023-07-20T07:55:59;5.38;;;2.63;;
26082;SDS011;13848;49.018;12.078;2023-07-20T07:58:25;4.97;;;2.30;;
26082;SDS011;13848;49.018;12.078;2023-07-20T08:00:51;4.55;;;2.55;;
26082;SDS011;13848;49.018;12.078;2023-07-20T08:03:17;2.78;;;2.40;;
26082;SDS011;13848;49.018;12.078;2023-07-20T08:05:44;5.10;;;2.60;;
26082;SDS011;13848;49.018;12.078;2023-07-20T08:08:10;3.63;;;2.58;;
26082;SDS011;13848;49.018;12.078;2023-07-20T08:10:36;3.08;;;2.30;;
26082;SDS011;13848;49.018;12.078;2023-07-20T08:13:02;3.53;;;2.35;;
26082;SDS011;13848;49.018;12.078;2023-07-20T08:15:28;2.40;;;2.20;;
26082;SDS011;13848;49.018;12.078;2023-07-20T08:17:54;3.28;;;2.30;;
26082;SDS011;13848;49.018;12.078;2023-07-20T08:20:20;6.93;;;2.45;;
26082;SDS011;13848;49.018;12.078;2023-07-20T08:22:47;5.07;;;2.05;;
26082;SDS011;13848;49.018;12.078;2023-07-20T08:25:13;5.50;;;2.03;;
26082;SDS011;13848;49.018;12.078;2023-07-20T08:27:39;5.53;;;2.65;;
26082;SDS011;13848;49.018;12.078;2023-07-20T08:30:05;5.53;;;2.03;;
26082;SDS011;13848;49.018;12.078;2023-07-20T08:32:32;4.70;;;2.10;;
26082;SDS011;13848;49.018;12.078;2023-07-20T08:34:58;7.10;;;2.10;;
26082;SDS011;13848;49.018;12.078;2023-07-20T08:37:24;7.57;;;2.67;;
26082;SDS011;13848;49.018;12.078;2023-07-20T08:39:51;6.70;;;2.03;;
26082;SDS011;13848;49.018;12.078;2023-07-20T08:42:17;2.28;;;1.90;;
26082;SDS011;13848;49.018;12.078;2023-07-20T08:44:43;3.67;;;1.88;;
26082;SDS011;13848;49.018;12.078;2023-07-20T08:47:13;3.67;;;1.95;;
26082;SDS011;13848;49.018;12.078;2023-07-20T08:49:41;4.25;;;1.73;;
26082;SDS011;13848;49.018;12.078;2023-07-20T08:52:07;4.25;;;1.90;;
26082;SDS011;13848;49.018;12.078;2023-07-20T08:54:34;2.47;;;1.80;;
26082;SDS011;13848;49.018;12.078;2023-07-20T08:57:03;4.03;;;1.80;;
26082;SDS011;13848;49.018;12.078;2023-07-20T08:59:30;3.60;;;1.80;;
26082;SDS011;13848;49.018;12.078;2023-07-20T09:01:56;2.08;;;1.55;;
26082;SDS011;13848;49.018;12.078;2023-07-20T09:04:23;2.75;;;1.70;;
26082;SDS011;13848;49.018;12.078;2023-07-20T09:06:49;2.70;;;1.50;;
26082;SDS011;13848;49.018;12.078;2023-07-20T09:09:15;4.78;;;1.80;;
26082;SDS011;13848;49.018;12.078;2023-07-20T09:11:41;4.50;;;1.40;;
26082;SDS011;13848;49.018;12.078;2023-07-20T09:14:09;2.42;;;1.55;;
26082;SDS011;13848;49.018;12.078;2023-07-20T09:16:46;1.70;;;1.20;;
26082;SDS011;13848;49.018;12.078;2023-07-20T09:19:14;2.17;;;1.77;;
26082;SDS011;13848;49.018;12.078;2023-07-20T09:21:40;6.93;;;4.35;;
26082;SDS011;13848;49.018;12.078;2023-07-20T09:24:06;5.28;;;2.28;;
26082;SDS011;13848;49.018;12.078;2023-07-20T09:26:32;2.42;;;1.98;;
26082;SDS011;13848;49.018;12.078;2023-07-20T09:29:05;2.00;;;1.20;;
26082;SDS011;13848;49.018;12.078;2023-07-20T09:31:34;3.63;;;1.70;;
26082;SDS011;13848;49.018;12.078;2023-07-20T09:34:00;3.35;;;1.50;;
26082;SDS011;13848;49.018;12.078;2023-07-20T09:36:26;1.92;;;1.38;;
26082;SDS011;13848;49.018;12.078;2023-07-20T09:38:52;1.67;;;1.50;;
26082;SDS011;13848;49.018;12.078;2023-07-20T09:41:19;1.98;;;1.42;;
26082;SDS011;13848;49.018;12.078;2023-07-20T09:43:46;2.60;;;1.80;;
26082;SDS011;13848;49.018;12.078;2023-07-20T09:46:12;1.60;;;1.48;;
26082;SDS011;13848;49.018;12.078;2023-07-20T09:48:40;3.17;;;1.70;;
26082;SDS011;13848;49.018;12.078;2023-07-20T09:51:06;2.38;;;1.55;;
26082;SDS011;13848;49.018;12.078;2023-07-20T09:53:33;5.22;;;1.70;;
26082;SDS011;13848;49.018;12.078;2023-07-20T09:55:59;2.25;;;1.67;;
26082;SDS011;13848;49.018;12.078;2023-07-20T09:58:25;6.32;;;1.50;;
26082;SDS011;13848;49.018;12.078;2023-07-20T10:00:51;2.72;;;1.40;;
26082;SDS011;13848;49.018;12.078;2023-07-20T10:03:20;2.17;;;1.40;;
26082;SDS011;13848;49.018;12.078;2023-07-20T10:05:51;3.35;;;2.13;;
26082;SDS011;13848;49.018;12.078;2023-07-20T10:08:19;1.90;;;1.58;;
26082;SDS011;13848;49.018;12.078;2023-07-20T10:10:49;3.25;;;1.70;;
26082;SDS011;13848;49.018;12.078;2023-07-20T10:13:17;6.10;;;1.92;;
26082;SDS011;13848;49.018;12.078;2023-07-20T10:15:46;5.22;;;2.00;;
26082;SDS011;13848;49.018;12.078;2023-07-20T10:18:17;1.88;;;1.52;;
26082;SDS011;13848;49.018;12.078;2023-07-20T10:20:46;3.17;;;1.30;;
26082;SDS011;13848;49.018;12.078;2023-07-20T10:23:14;2.33;;;1.38;;
26082;SDS011;13848;49.018;12.078;2023-07-20T10:25:40;2.75;;;1.60;;
26082;SDS011;13848;49.018;12.078;2023-07-20T10:28:06;2.97;;;1.52;;
26082;SDS011;13848;49.018;12.078;2023-07-20T10:30:33;3.58;;;1.60;;
26082;SDS011;13848;49.018;12.078;2023-07-20T10:33:00;2.92;;;1.40;;
26082;SDS011;13848;49.018;12.078;2023-07-20T10:35:27;1.65;;;1.40;;
26082;SDS011;13848;49.018;12.078;2023-07-20T10:37:54;1.63;;;1.33;;
26082;SDS011;13848;49.018;12.078;2023-07-20T10:40:27;2.05;;;1.35;;
26082;SDS011;13848;49.018;12.078;2023-07-20T10:43:02;4.03;;;1.30;;
26082;SDS011;13848;49.018;12.078;2023-07-20T10:45:37;2.92;;;1.40;;
26082;SDS011;13848;49.018;12.078;2023-07-20T10:48:05;2.63;;;1.38;;
26082;SDS011;13848;49.018;12.078;2023-07-20T10:50:38;2.88;;;1.77;;
26082;SDS011;13848;49.018;12.078;2023-07-20T10:53:05;3.35;;;1.80;;
26082;SDS011;13848;49.018;12.078;2023-07-20T10:55:37;5.80;;;1.60;;
26082;SDS011;13848;49.018;12.078;2023-07-20T10:58:06;1.70;;;1.52;;
26082;SDS011;13848;49.018;12.078;2023-07-20T11:00:33;1.95;;;1.40;;
26082;SDS011;13848;49.018;12.078;2023-07-20T11:02:59;2.10;;;1.55;;
26082;SDS011;13848;49.018;12.078;2023-07-20T11:05:32;3.63;;;1.52;;
26082;SDS011;13848;49.018;12.078;2023-07-20T11:07:59;1.98;;;1.35;;
26082;SDS011;13848;49.018;12.078;2023-07-20T11:10:25;2.85;;;1.55;;
26082;SDS011;13848;49.018;12.078;2023-07-20T11:15:46;1.95;;;1.33;;
26082;SDS011;13848;49.018;12.078;2023-07-20T11:18:12;2.67;;;1.60;;
26082;SDS011;13848;49.018;12.078;2023-07-20T11:20:39;13.25;;;1.63;;
26082;SDS011;13848;49.018;12.078;2023-07-20T11:23:06;4.38;;;1.60;;
26082;SDS011;13848;49.018;12.078;2023-07-20T11:25:35;5.60;;;1.83;;
26082;SDS011;13848;49.018;12.078;2023-07-20T11:28:06;2.78;;;1.73;;
26082;SDS011;13848;49.018;12.078;2023-07-20T11:30:34;2.30;;;1.42;;
26082;SDS011;13848;49.018;12.078;2023-07-20T11:33:00;2.17;;;1.33;;
26082;SDS011;13848;49.018;12.078;2023-07-20T11:35:26;2.92;;;1.50;;
26082;SDS011;13848;49.018;12.078;2023-07-20T11:37:52;3.45;;;1.50;;
26082;SDS011;13848;49.018;12.078;2023-07-20T11:40:18;3.78;;;1.55;;
26082;SDS011;13848;49.018;12.078;2023-07-20T11:42:44;3.58;;;1.98;;
26082;SDS011;13848;49.018;12.078;2023-07-20T11:45:10;3.45;;;1.30;;
26082;SDS011;13848;49.018;12.078;2023-07-20T11:47:40;5.25;;;1.88;;
26082;SDS011;13848;49.018;12.078;2023-07-20T11:50:07;3.88;;;1.95;;
26082;SDS011;13848;49.018;12.078;2023-07-20T11:52:33;6.15;;;2.10;;
26082;SDS011;13848;49.018;12.078;2023-07-20T11:55:00;2.03;;;1.50;;
26082;SDS011;13848;49.018;12.078;2023-07-20T11:57:27;2.97;;;1.60;;
26082;SDS011;13848;49.018;12.078;2023-07-20T11:59:53;2.45;;;1.50;;
26082;SDS011;13848;49.018;12.078;2023-07-20T12:02:19;2.70;;;1.52;;
26082;SDS011;13848;49.018;12.078;2023-07-20T12:04:46;4.93;;;1.40;;
26082;SDS011;13848;49.018;12.078;2023-07-20T12:07:13;3.50;;;1.90;;
26082;SDS011;13848;49.018;12.078;2023-07-20T12:09:39;2.65;;;1.77;;
26082;SDS011;13848;49.018;12.078;2023-07-20T12:12:09;7.10;;;1.50;;
26082;SDS011;13848;49.018;12.078;2023-07-20T12:14:35;2.42;;;1.60;;
26082;SDS011;13848;49.018;12.078;2023-07-20T12:17:01;2.28;;;1.20;;
26082;SDS011;13848;49.018;12.078;2023-07-20T12:19:27;1.98;;;1.40;;
26082;SDS011;13848;49.018;12.078;2023-07-20T12:21:56;2.97;;;1.38;;
26082;SDS011;13848;49.018;12.078;2023-07-20T12:24:23;1.90;;;1.42;;
26082;SDS011;13848;49.018;12.078;2023-07-20T12:26:49;2.10;;;1.40;;
26082;SDS011;13848;49.018;12.078;2023-07-20T12:29:22;2.75;;;1.70;;
26082;SDS011;13848;49.018;12.078;2023-07-20T12:31:48;2.40;;;1.50;;
26082;SDS011;13848;49.018;12.078;2023-07-20T12:34:14;2.40;;;1.85;;
26082;SDS011;13848;49.018;12.078;2023-07-20T12:36:40;3.83;;;1.85;;
26082;SDS011;13848;49.018;12.078;2023-07-20T12:39:07;2.72;;;1.40;;
26082;SDS011;13848;49.018;12.078;2023-07-20T12:41:33;2.50;;;1.50;;
26082;SDS011;13848;49.018;12.078;2023-07-20T12:43:59;4.20;;;1.40;;
26082;SDS011;13848;49.018;12.078;2023-07-20T12:46:25;3.00;;;1.90;;
26082;SDS011;13848;49.018;12.078;2023-07-20T12:48:51;2.58;;;1.77;;
26082;SDS011;13848;49.018;12.078;2023-07-20T12:51:17;1.33;;;1.23;;
26082;SDS011;13848;49.018;12.078;2023-07-20T12:53:43;1.73;;;1.38;;
26082;SDS011;13848;49.018;12.078;2023-07-20T12:56:11;2.33;;;1.30;;
26082;SDS011;13848;49.018;12.078;2023-07-20T12:58:37;2.35;;;1.50;;
26082;SDS011;13848;49.018;12.078;2023-07-20T13:01:03;5.07;;;1.60;;
26082;SDS011;13848;49.018;12.078;2023-07-20T13:03:28;2.60;;;1.52;;
26082;SDS011;13848;49.018;12.078;2023-07-20T13:05:54;3.75;;;1.30;;
26082;SDS011;13848;49.018;12.078;2023-07-20T13:08:20;4.93;;;1.40;;
26082;SDS011;13848;49.018;12.078;2023-07-20T13:10:46;2.25;;;1.40;;
26082;SDS011;13848;49.018;12.078;2023-07-20T13:13:14;1.42;;;1.20;;
26082;SDS011;13848;49.018;12.078;2023-07-20T13:15:43;1.52;;;1.13;;
26082;SDS011;13848;49.018;12.078;2023-07-20T13:18:10;1.85;;;1.30;;
26082;SDS011;13848;49.018;12.078;2023-07-20T13:20:36;6.15;;;1.30;;
26082;SDS011;13848;49.018;12.078;2023-07-20T13:23:02;1.20;;;1.10;;
26082;SDS011;13848;49.018;12.078;2023-07-20T13:25:28;2.10;;;1.27;;
26082;SDS011;13848;49.018;12.078;2023-07-20T13:27:54;4.40;;;1.50;;
26082;SDS011;13848;49.018;12.078;2023-07-20T13:30:21;1.83;;;1.40;;
26082;SDS011;13848;49.018;12.078;2023-07-20T13:32:47;1.95;;;1.27;;
26082;SDS011;13848;49.018;12.078;2023-07-20T13:35:13;1.67;;;1.38;;
26082;SDS011;13848;49.018;12.078;2023-07-20T13:37:39;1.80;;;1.20;;
26082;SDS011;13848;49.018;12.078;2023-07-20T13:40:06;2.05;;;1.40;;
26082;SDS011;13848;49.018;12.078;2023-07-20T13:42:33;2.22;;;1.33;;
26082;SDS011;13848;49.018;12.078;2023-07-20T13:44:58;2.15;;;1.00;;
26082;SDS011;13848;49.018;12.078;2023-07-20T13:47:26;1.75;;;1.30;;
26082;SDS011;13848;49.018;12.078;2023-07-20T13:49:52;3.28;;;1.75;;
26082;SDS011;13848;49.018;12.078;2023-07-20T13:52:18;4.30;;;1.73;;
26082;SDS011;13848;49.018;12.078;2023-07-20T13:54:44;2.58;;;1.20;;
26082;SDS011;13848;49.018;12.078;2023-07-20T13:57:10;1.33;;;1.23;;
26082;SDS011;13848;49.018;12.078;2023-07-20T13:59:36;1.67;;;1.10;;
26082;SDS011;13848;49.018;12.078;2023-07-20T14:02:02;2.78;;;1.13;;
26082;SDS011;13848;49.018;12.078;2023-07-20T14:04:29;2.60;;;1.20;;
26082;SDS011;13848;49.018;12.078;2023-07-20T14:06:55;1.90;;;1.20;;
26082;SDS011;13848;49.018;12.078;2023-07-20T14:09:21;1.67;;;1.13;;
26082;SDS011;13848;49.018;12.078;2023-07-20T14:11:47;1.63;;;1.08;;
26082;SDS011;13848;49.018;12.078;2023-07-20T14:14:13;2.88;;;1.48;;
26082;SDS011;13848;49.018;12.078;2023-07-20T14:16:39;1.95;;;1.23;;
26082;SDS011;13848;49.018;12.078;2023-07-20T14:19:05;2.65;;;1.38;;
26082;SDS011;13848;49.018;12.078;2023-07-20T14:21:32;4.13;;;1.30;;
26082;SDS011;13848;49.018;12.078;2023-07-20T14:23:58;1.50;;;1.35;;
26082;SDS011;13848;49.018;12.078;2023-07-20T14:26:24;1.73;;;1.30;;
26082;SDS011;13848;49.018;12.078;2023-07-20T14:28:50;1.63;;;1.23;;
26082;SDS011;13848;49.018;12.078;2023-07-20T14:31:16;1.55;;;1.30;;
26082;SDS011;13848;49.018;12.078;2023-07-20T14:33:42;3.25;;;1.30;;